Gillette, WY (82716)

3:21 PM MDT on July 30, 2016 (GMT -0600)
Gillette-Campbell County | | Change Station

Elev 4364 ft 44.34 °N, 105.54 °W | Updated 28 minutes ago

Scattered Clouds
Scattered Clouds
91 °F
Feels Like 91 °F
N
13
Wind Variable Wind from SSE
Gusts 24 mph

Today
High -- | Low -- °F
--% Chance of Precip.
Yesterday
High -- | Low -- °F
Precip. -- in
Pressure 29.70 in
Visibility 10.0 miles
Clouds Scattered Clouds 10000 ft
Dew Point 45 °F
Humidity 20%
Rainfall 0.00 in
Snow Depth Not available.
5:47 AM 8:29 PM
Waning Crescent, 11% visible
METAR KGCC 302053Z AUTO 16011G21KT 10SM SCT100 33/07 A2987 RMK AO2 PK WND 20027/2034 SLP057 T03280072 58017
Pressure 29.70 in
Visibility 10.0 miles
Clouds Scattered Clouds 10000 ft
Dew Point 45 °F
Humidity 20%
Rainfall 0.00 in
Snow Depth Not available.
5:47 AM 8:29 PM
Waning Crescent, 11% visible
METAR KGCC 302053Z AUTO 16011G21KT 10SM SCT100 33/07 A2987 RMK AO2 PK WND 20027/2034 SLP057 T03280072 58017

10-Day Weather Forecast

Almanac

Astronomy

Jul. 30, 2016 Rise Set
Actual Time
Civil Twilight
Nautical Twilight
Astronomical Twilight
Moon
Length of Visible Light
Length of Day
Tomorrow will be .
, % of the Moon is Illuminated

Today's Extremes

State Highs State Lows

Community

WunderPhotos

Upload Photos

1,928,648 photos uploaded!

WunderBlog® & News

Nearby

Air Quality

  Air Quality AQ Index Pollutant
Not available.

Snow Depth

Station Depth Elevation

Earthquake Activity

City Distance Mag. Time & Date
Minimum magnitude displayed is 2.5.

Coastal Water Temperatures

Place Temperature

Stations

Nearby Weather Stations

Station Location Temp. Windchill Dew Point Humidity Wind Precip. Elev Updated Type
                   

Watches & Warnings

There are currently no watches in effect.